Time;durP1;ratioP1;P1;durP2;ratioP2;P2;SDS_P1;SDS_P2;PMS_P1;PMS_P2;Temp;Humidity;BMP_temperature;BMP_pressure;BME280_temperature;BME280_humidity;BME280_pressure;Samples;Min_cycle;Max_cycle;Signal;HPM_P1;HPM_P2
2021/08/09 00:02:31;;;;;;;3.50;2.75;;;;;;;18.01;61.55;100377.97;2088993;85;29550;-63
2021/08/09 00:05:34;;;;;;;3.25;2.35;;;;;;;17.92;61.72;100380.89;2089053;85;31090;-63
2021/08/09 00:08:36;;;;;;;2.90;1.62;;;;;;;17.85;61.84;100385.56;2089170;85;34008;-63
2021/08/09 00:11:38;;;;;;;2.83;1.77;;;;;;;17.75;62.08;100384.91;2089738;85;29670;-62
2021/08/09 00:14:40;;;;;;;2.80;2.00;;;;;;;17.66;62.16;100389.71;2083368;85;27766;-63
2021/08/09 00:17:42;;;;;;;1.65;1.40;;;;;;;17.59;62.30;100391.16;2122718;83;30101;-62
2021/08/09 00:20:44;;;;;;;1.65;1.42;;;;;;;17.51;62.32;100382.78;2128215;83;32287;-62
2021/08/09 00:23:47;;;;;;;4.20;1.47;;;;;;;17.43;62.43;100380.67;2174067;81;34251;-62
2021/08/09 00:26:50;;;;;;;2.15;1.20;;;;;;;17.28;62.38;100375.46;2177523;81;30172;-62
2021/08/09 00:29:52;;;;;;;4.00;1.10;;;;;;;17.29;62.57;100397.47;2177962;81;28254;-64
2021/08/09 00:32:54;;;;;;;1.70;1.20;;;;;;;17.19;62.76;100385.63;2177399;81;29510;-63
2021/08/09 00:35:56;;;;;;;2.25;1.20;;;;;;;17.12;62.77;100393.86;2177415;81;31040;-63
2021/08/09 00:38:58;;;;;;;1.57;1.25;;;;;;;17.05;62.80;100389.37;2169058;82;32716;-63
2021/08/09 00:42:01;;;;;;;2.58;1.37;;;;;;;16.98;63.10;100385.41;2168864;81;30281;-63
2021/08/09 00:45:04;;;;;;;1.25;1.07;;;;;;;16.90;62.98;100378.31;2169440;81;27989;-64
2021/08/09 00:48:07;;;;;;;1.37;1.02;;;;;;;16.83;63.13;100378.80;2134137;81;29519;-64
2021/08/09 00:51:09;;;;;;;1.92;1.00;;;;;;;16.76;63.22;100384.78;2134150;83;32501;-64
2021/08/09 00:54:11;;;;;;;2.22;1.05;;;;;;;16.68;63.44;100386.20;2144003;81;33390;-64
2021/08/09 00:57:13;;;;;;;1.35;0.95;;;;;;;16.59;63.63;100382.84;2186330;81;30456;-64
2021/08/09 01:00:15;;;;;;;1.00;0.90;;;;;;;16.49;63.83;100393.47;2154606;81;27752;-63
2021/08/09 01:03:17;;;;;;;3.30;1.37;;;;;;;16.41;63.85;100391.80;2148246;82;29920;-63
2021/08/09 01:06:19;;;;;;;6.53;1.25;;;;;;;16.35;64.03;100392.26;2148147;82;32246;-63
2021/08/09 01:09:31;;;;;;;0.78;0.78;;;;;;;16.28;64.09;100399.95;2141161;82;34154;-63
2021/08/09 01:12:44;;;;;;;2.90;1.15;;;;;;;16.21;64.17;100387.84;2135296;83;29495;-63
2021/08/09 01:15:49;;;;;;;1.20;1.10;;;;;;;16.02;64.28;100376.99;2135601;83;27612;-62
2021/08/09 01:18:55;;;;;;;2.62;1.00;;;;;;;16.08;64.55;100406.30;2135560;83;29034;-63
2021/08/09 01:22:08;;;;;;;0.95;0.95;;;;;;;16.01;64.58;100402.28;2136189;82;31472;-63
2021/08/09 01:25:27;;;;;;;1.55;1.20;;;;;;;15.93;64.68;100400.13;2100411;84;34197;-63
2021/08/09 01:28:31;;;;;;;1.60;0.90;;;;;;;15.87;64.54;100402.40;2102101;84;30751;-64
2021/08/09 01:31:43;;;;;;;2.60;1.10;;;;;;;15.81;64.65;100407.72;2080409;84;27739;-63
2021/08/09 01:34:45;;;;;;;3.72;1.20;;;;;;;15.75;64.80;100410.84;2102658;84;29140;-64
2021/08/09 01:37:52;;;;;;;3.30;1.45;;;;;;;15.70;64.83;100414.38;2103637;84;31381;-63
2021/08/09 01:40:57;;;;;;;1.80;1.20;;;;;;;15.65;65.10;100416.02;2103086;84;33613;-63
2021/08/09 01:43:59;;;;;;;1.70;1.32;;;;;;;15.60;65.10;100423.09;2102925;84;30474;-63
2021/08/09 01:47:01;;;;;;;2.55;1.40;;;;;;;15.55;65.33;100424.38;2114869;82;27718;-64
2021/08/09 01:50:05;;;;;;;4.97;1.45;;;;;;;15.50;65.46;100426.91;2136346;83;29604;-64
2021/08/09 01:53:07;;;;;;;1.45;1.17;;;;;;;15.46;65.47;100428.11;2136784;83;31849;-63
2021/08/09 01:56:10;;;;;;;2.50;1.55;;;;;;;15.43;65.55;100427.42;2111245;83;34298;-63
2021/08/09 01:59:12;;;;;;;4.55;1.60;;;;;;;15.41;65.72;100432.06;2134864;83;29342;-63
2021/08/09 02:02:30;;;;;;;2.05;1.30;;;;;;;15.39;65.68;100439.43;2155374;81;27722;-63
2021/08/09 02:05:32;;;;;;;2.27;1.65;;;;;;;15.37;65.75;100437.31;2176331;81;29688;-63
2021/08/09 02:08:35;;;;;;;2.62;1.65;;;;;;;15.34;65.77;100442.41;2176379;81;31892;-63
2021/08/09 02:11:56;;;;;;;2.65;1.80;;;;;;;15.29;66.05;100437.83;2181223;81;34150;-63
2021/08/09 02:14:59;;;;;;;3.37;1.00;;;;;;;15.25;66.06;100450.64;2180999;81;28749;-64
2021/08/09 02:18:09;;;;;;;2.02;1.47;;;;;;;15.22;66.15;100452.23;2181438;81;27588;-65
2021/08/09 02:21:17;;;;;;;2.20;1.17;;;;;;;15.18;66.09;100457.44;2181271;81;28696;-65
2021/08/09 02:24:34;;;;;;;2.75;1.10;;;;;;;15.14;66.11;100469.39;2180266;81;31130;-65
2021/08/09 02:27:43;;;;;;;2.25;1.15;;;;;;;15.09;66.46;100468.83;2180580;81;33298;-64
2021/08/09 02:30:48;;;;;;;2.40;1.30;;;;;;;15.03;66.41;100470.98;2180385;81;29369;-64
2021/08/09 02:33:50;;;;;;;3.15;1.60;;;;;;;14.98;66.51;100474.45;2181192;81;27620;-64
2021/08/09 02:36:52;;;;;;;1.85;1.30;;;;;;;14.94;66.56;100481.51;2181078;81;29263;-63
2021/08/09 02:39:54;;;;;;;1.70;1.12;;;;;;;14.88;66.76;100483.63;2181090;81;31467;-63
2021/08/09 02:42:57;;;;;;;1.57;1.10;;;;;;;14.82;66.81;100493.45;2180012;81;33790;-63
2021/08/09 02:46:00;;;;;;;2.10;1.32;;;;;;;14.78;66.92;100499.15;2180101;81;29117;-64
2021/08/09 02:49:03;;;;;;;1.77;1.40;;;;;;;14.73;67.01;100508.89;2170790;81;27704;-64
2021/08/09 02:52:07;;;;;;;4.10;1.40;;;;;;;14.67;67.21;100508.77;2165667;81;29589;-64
2021/08/09 02:55:11;;;;;;;3.77;1.15;;;;;;;14.62;67.28;100509.54;2165018;82;31136;-63
2021/08/09 02:58:13;;;;;;;1.47;1.00;;;;;;;14.56;67.37;100522.92;2164959;82;33060;-64
2021/08/09 03:01:16;;;;;;;3.58;1.32;;;;;;;14.49;67.61;100522.91;2164684;82;30519;-63
2021/08/09 03:04:21;;;;;;;1.15;1.00;;;;;;;14.43;67.59;100525.52;2166292;82;27683;-63
2021/08/09 03:07:24;;;;;;;2.70;1.50;;;;;;;14.40;67.68;100532.44;2169939;81;29678;-64
2021/08/09 03:10:26;;;;;;;1.90;1.40;;;;;;;14.36;67.97;100536.77;2169919;82;31265;-63
2021/08/09 03:13:28;;;;;;;4.62;2.72;;;;;;;14.32;68.05;100538.80;2138657;82;33579;-63
2021/08/09 03:16:30;;;;;;;2.12;1.60;;;;;;;14.28;68.07;100539.48;2168663;81;30081;-63
2021/08/09 03:19:32;;;;;;;1.65;1.50;;;;;;;14.27;68.19;100547.17;2165207;82;27797;-63
2021/08/09 03:22:35;;;;;;;2.15;1.65;;;;;;;14.25;68.34;100542.82;2166954;82;28682;-63
2021/08/09 03:25:40;;;;;;;2.87;1.85;;;;;;;14.22;68.55;100547.93;2170045;81;31839;-66
2021/08/09 03:28:42;;;;;;;3.80;1.32;;;;;;;14.20;68.55;100549.84;2170057;81;32952;-63
2021/08/09 03:31:44;;;;;;;2.62;1.30;;;;;;;14.20;68.75;100547.65;2169434;81;30442;-64
2021/08/09 15:26:00;;;;;;;3.62;1.80;;;;;;;25.64;35.70;100538.83;2097420;78;27608;-75
2021/08/09 15:29:02;;;;;;;1.75;1.45;;;;;;;25.58;35.33;100527.16;2074559;84;28871;-81
2021/08/09 15:32:05;;;;;;;4.30;1.80;;;;;;;25.51;35.45;100526.13;2033863;86;31884;-63
2021/08/09 15:35:08;;;;;;;14.40;11.25;;;;;;;25.44;35.47;100525.95;2055283;85;32957;-59
2021/08/09 15:38:15;;;;;;;5.15;1.92;;;;;;;25.39;35.92;100524.18;2029822;86;29494;-60
2021/08/09 15:41:18;;;;;;;7.92;2.22;;;;;;;25.32;35.82;100524.84;2055646;86;27646;-59
2021/08/09 15:44:20;;;;;;;9.50;5.50;;;;;;;25.26;35.92;100527.39;2051982;86;28731;-59
2021/08/09 15:47:22;;;;;;;3.60;1.80;;;;;;;25.22;36.15;100531.52;2052096;86;31387;-59
2021/08/09 15:50:24;;;;;;;2.90;1.85;;;;;;;25.16;36.25;100523.42;2052019;86;33321;-59
2021/08/09 15:53:26;;;;;;;2.37;1.17;;;;;;;25.11;36.39;100528.56;2032312;86;29212;-59
2021/08/09 15:56:28;;;;;;;1.90;1.20;;;;;;;25.12;36.43;100532.50;2061662;84;27737;-59
2021/08/09 15:59:31;;;;;;;2.17;1.82;;;;;;;25.14;36.30;100524.97;2091563;85;29474;-59
2021/08/09 16:02:34;;;;;;;4.00;1.62;;;;;;;25.17;35.89;100518.28;2091184;84;31998;-59
2021/08/09 16:05:37;;;;;;;1.98;1.40;;;;;;;25.17;36.06;100517.79;2077947;85;32381;-59
2021/08/09 16:08:40;;;;;;;2.30;1.40;;;;;;;25.15;35.95;100515.72;2091278;85;29389;-59
2021/08/09 16:11:42;;;;;;;2.10;1.37;;;;;;;25.12;36.17;100508.35;2090584;84;27860;-59
2021/08/09 16:14:44;;;;;;;4.00;1.15;;;;;;;25.08;36.18;100509.70;2091663;85;29963;-59
2021/08/09 16:17:45;;;;;;;3.12;1.22;;;;;;;25.02;36.42;100516.19;2091246;84;32265;-59
2021/08/09 16:20:47;;;;;;;3.40;1.20;;;;;;;24.98;36.96;100513.95;2091535;85;34177;-59
2021/08/09 16:23:53;;;;;;;2.35;1.30;;;;;;;24.90;37.15;100505.70;2091005;84;29656;-59
2021/08/09 16:26:55;;;;;;;2.15;1.50;;;;;;;24.81;36.94;100512.51;2128210;83;27688;-59
2021/08/09 16:29:57;;;;;;;3.80;1.22;;;;;;;24.72;36.94;100501.18;2052310;86;29094;-59
2021/08/09 16:33:01;;;;;;;2.85;1.32;;;;;;;24.67;37.04;100512.58;2028285;86;32263;-59
2021/08/09 16:36:04;;;;;;;4.62;1.35;;;;;;;24.64;37.44;100512.05;2075253;85;32968;-59
2021/08/09 16:39:06;;;;;;;4.28;2.17;;;;;;;24.56;37.61;100508.27;2077233;85;28834;-59
2021/08/09 16:42:08;;;;;;;18.73;14.73;;;;;;;24.53;37.74;100506.34;2080775;85;27710;-58
2021/08/09 16:45:11;;;;;;;4.50;2.10;;;;;;;24.47;38.17;100509.74;2080992;85;29866;-60
2021/08/09 16:48:13;;;;;;;2.50;1.45;;;;;;;24.41;38.24;100515.33;2094716;84;31008;-58
2021/08/09 16:51:16;;;;;;;1.85;1.55;;;;;;;24.34;37.74;100508.80;2094440;85;33133;-59
2021/08/09 16:54:18;;;;;;;2.25;1.52;;;;;;;24.29;37.87;100509.30;2062883;85;29367;-59
2021/08/09 16:57:28;;;;;;;4.33;1.12;;;;;;;24.24;37.57;100504.80;2058030;85;27692;-59
2021/08/09 17:00:32;;;;;;;4.05;2.30;;;;;;;24.18;37.17;100503.56;2058167;85;28634;-59
2021/08/09 17:03:34;;;;;;;1.93;1.43;;;;;;;24.13;37.61;100503.18;2060309;85;32186;-60
2021/08/09 17:06:37;;;;;;;0.88;0.88;;;;;;;24.10;37.67;100503.50;2057835;85;34188;-59
2021/08/09 17:09:41;;;;;;;4.33;2.33;;;;;;;24.06;38.04;100504.33;2058128;85;30453;-59
2021/08/09 17:12:42;;;;;;;6.72;1.95;;;;;;;24.00;38.12;100504.11;2070086;85;27680;-59
2021/08/09 17:15:45;;;;;;;4.67;1.62;;;;;;;23.93;38.34;100499.75;2094269;84;29060;-59
2021/08/09 17:18:47;;;;;;;3.70;1.50;;;;;;;23.87;38.60;100497.15;2094336;85;30317;-59
2021/08/09 17:21:49;;;;;;;4.30;1.65;;;;;;;23.81;38.66;100499.14;2094122;84;33840;-60
2021/08/09 17:24:50;;;;;;;3.37;1.37;;;;;;;23.75;38.79;100498.39;2094227;83;30179;-59
2021/08/09 17:27:54;;;;;;;6.75;1.62;;;;;;;23.69;39.23;100502.63;2047405;86;27720;-58
2021/08/09 17:30:55;;;;;;;4.30;1.67;;;;;;;23.61;39.75;100500.67;2065548;86;29989;-59
2021/08/09 17:33:57;;;;;;;2.77;1.60;;;;;;;23.54;40.09;100497.35;2044394;86;31052;-58
2021/08/09 17:36:59;;;;;;;2.98;1.98;;;;;;;23.44;40.73;100502.89;2109064;84;34943;-58
2021/08/09 17:40:01;;;;;;;13.88;4.97;;;;;;;23.33;41.00;100506.22;2094609;83;30617;-58
2021/08/09 17:43:03;;;;;;;5.03;1.82;;;;;;;23.21;41.32;100505.57;2095372;84;27733;-58
2021/08/09 17:46:05;;;;;;;3.70;1.67;;;;;;;23.09;42.23;100511.36;2106028;84;29020;-58
2021/08/09 17:49:07;;;;;;;16.62;12.82;;;;;;;22.95;42.69;100511.39;2021761;88;31955;-59
2021/08/09 17:52:09;;;;;;;11.45;7.25;;;;;;;22.80;42.60;100513.75;2020930;88;34168;-59
2021/08/09 17:55:13;;;;;;;5.83;4.72;;;;;;;22.66;43.13;100513.76;2089255;85;30671;-58
2021/08/09 17:58:15;;;;;;;6.60;2.80;;;;;;;22.51;43.76;100510.64;2089885;84;27699;-59
2021/08/09 18:01:17;;;;;;;3.72;2.60;;;;;;;22.38;43.68;100512.30;2089529;84;30024;-59
2021/08/09 18:04:19;;;;;;;5.30;3.47;;;;;;;22.24;44.26;100513.64;2063823;85;32249;-59
2021/08/09 18:07:22;;;;;;;4.00;3.15;;;;;;;22.10;44.45;100513.07;2061098;86;34185;-59
2021/08/09 18:10:24;;;;;;;4.67;3.10;;;;;;;21.97;44.93;100517.48;2066292;86;30531;-59
2021/08/09 18:13:26;;;;;;;5.62;3.33;;;;;;;21.83;45.32;100520.66;2053627;84;27748;-58
2021/08/09 18:16:31;;;;;;;4.67;2.95;;;;;;;21.69;45.75;100524.16;2033151;86;28687;-59
2021/08/09 18:19:33;;;;;;;5.28;3.83;;;;;;;21.55;46.04;100519.10;2003362;87;31866;-58
2021/08/09 18:22:35;;;;;;;16.65;12.13;;;;;;;21.42;46.23;100528.94;2036039;86;34176;-59
2021/08/09 18:25:37;;;;;;;16.20;11.93;;;;;;;21.30;47.01;100529.56;2046582;86;29772;-59
2021/08/09 18:28:39;;;;;;;11.40;9.20;;;;;;;21.13;47.40;100525.63;1975255;88;27807;-59
2021/08/09 18:31:41;;;;;;;9.50;6.40;;;;;;;21.01;48.23;100530.84;2026991;85;28673;-58
2021/08/09 18:34:43;;;;;;;11.90;6.47;;;;;;;20.88;48.37;100533.80;2005588;86;32332;-59
2021/08/09 18:37:47;;;;;;;8.30;5.83;;;;;;;20.75;48.62;100536.27;2035068;85;33719;-60
2021/08/09 18:40:48;;;;;;;9.63;5.75;;;;;;;20.63;49.15;100537.33;2028970;86;30475;-59
2021/08/09 18:43:51;;;;;;;29.20;20.52;;;;;;;20.51;49.51;100539.78;2063110;85;27715;-60
2021/08/09 18:46:53;;;;;;;16.50;12.78;;;;;;;20.37;49.69;100542.34;2087318;84;29745;-69
2021/08/09 18:49:55;;;;;;;12.93;10.08;;;;;;;20.23;49.86;100546.25;2093730;83;31841;-69
2021/08/09 18:52:57;;;;;;;16.50;12.45;;;;;;;20.10;50.33;100551.91;2084398;83;32776;-59
2021/08/09 18:56:01;;;;;;;11.03;7.62;;;;;;;19.99;50.74;100555.04;2082663;84;29407;-59
2021/08/09 18:59:05;;;;;;;7.17;4.83;;;;;;;19.86;51.01;100555.70;2083315;85;27667;-59
2021/08/09 19:02:07;;;;;;;8.17;4.33;;;;;;;19.74;51.42;100563.02;2081146;84;29922;-59
2021/08/09 19:05:10;;;;;;;10.15;4.08;;;;;;;19.63;51.56;100564.44;2078316;84;31105;-59
2021/08/09 19:08:14;;;;;;;11.05;4.05;;;;;;;19.50;52.23;100567.30;2080826;84;33863;-59
2021/08/09 19:11:16;;;;;;;11.30;4.20;;;;;;;19.38;52.29;100568.70;2105701;84;29363;-60
2021/08/09 19:14:22;;;;;;;10.03;3.98;;;;;;;19.15;52.76;100542.08;2028413;86;27676;-59
2021/08/09 19:17:24;;;;;;;9.38;4.00;;;;;;;19.21;53.05;100566.00;2084687;84;28645;-59
2021/08/09 19:20:27;;;;;;;9.75;4.03;;;;;;;19.15;53.52;100567.88;2093770;84;31742;-59
2021/08/09 19:23:39;;;;;;;12.35;5.10;;;;;;;19.07;53.64;100561.72;2084842;84;33048;-70
2021/08/09 19:26:46;;;;;;;8.00;3.87;;;;;;;18.99;53.80;100570.97;2022044;86;27724;-58
2021/08/09 19:29:49;;;;;;;11.95;4.37;;;;;;;18.92;54.10;100571.08;2020240;88;28223;-59
2021/08/09 19:32:51;;;;;;;10.45;4.78;;;;;;;18.83;54.99;100572.69;2019621;88;29942;-60
2021/08/09 19:35:55;;;;;;;8.98;4.67;;;;;;;18.78;55.06;100570.82;2092184;85;31112;-59
2021/08/09 19:38:58;;;;;;;15.30;4.65;;;;;;;18.70;55.13;100576.86;2095621;84;33790;-59
2021/08/09 19:42:00;;;;;;;9.25;4.47;;;;;;;18.67;55.43;100583.88;2057855;84;29430;-59
2021/08/09 19:45:02;;;;;;;8.45;4.90;;;;;;;18.60;55.58;100578.08;2045983;86;27702;-59
2021/08/09 19:48:06;;;;;;;8.15;4.80;;;;;;;18.53;55.84;100572.28;2032936;86;29978;-60
2021/08/09 19:51:09;;;;;;;15.27;5.37;;;;;;;18.49;56.04;100584.35;1976017;90;31093;-60
2021/08/09 19:54:10;;;;;;;8.30;4.10;;;;;;;18.46;56.32;100578.31;2007731;86;33058;-58
2021/08/09 19:57:13;;;;;;;7.10;3.33;;;;;;;18.43;56.57;100572.65;2031423;86;29361;-59
2021/08/09 20:00:17;;;;;;;9.53;4.22;;;;;;;18.40;56.74;100576.07;2033646;86;27682;-61
2021/08/09 20:03:19;;;;;;;22.73;13.37;;;;;;;18.35;57.09;100571.89;2045483;86;31602;-58
2021/08/09 20:06:21;;;;;;;11.88;8.00;;;;;;;18.21;57.30;100560.75;2044896;85;32251;-59
2021/08/09 20:09:24;;;;;;;22.58;13.30;;;;;;;18.27;57.51;100578.39;2017678;86;33818;-59
2021/08/09 20:12:26;;;;;;;11.38;5.17;;;;;;;18.24;57.55;100579.13;2053772;86;28786;-59
2021/08/09 20:15:28;;;;;;;11.68;4.80;;;;;;;18.20;58.11;100581.23;2051594;86;27557;-58
2021/08/09 20:18:30;;;;;;;20.55;5.28;;;;;;;18.15;57.88;100582.91;2051440;86;28761;-59
2021/08/09 20:21:32;;;;;;;11.60;4.72;;;;;;;18.13;58.33;100582.67;2051166;86;31127;-60
2021/08/09 20:24:34;;;;;;;11.18;4.42;;;;;;;18.11;58.66;100585.98;2036139;86;34189;-58
2021/08/09 20:27:37;;;;;;;8.43;4.08;;;;;;;18.06;58.98;100583.13;2012024;88;30693;-58
2021/08/09 20:30:40;;;;;;;6.55;3.47;;;;;;;18.05;58.83;100581.91;2012216;88;28331;-58
2021/08/09 20:33:41;;;;;;;10.48;4.22;;;;;;;18.01;59.47;100583.11;2019085;86;29577;-58
2021/08/09 20:36:44;;;;;;;8.43;4.33;;;;;;;17.97;59.39;100577.04;2050994;85;32396;-58
2021/08/09 20:39:46;;;;;;;8.55;3.30;;;;;;;17.96;59.39;100580.73;2051725;86;33448;-58
2021/08/09 20:42:50;;;;;;;4.95;3.15;;;;;;;17.95;59.54;100574.94;2108978;83;29128;-58
2021/08/09 20:45:52;;;;;;;11.95;3.85;;;;;;;17.95;59.84;100580.86;2133892;83;27593;-58
2021/08/09 20:48:54;;;;;;;8.60;4.05;;;;;;;17.91;59.92;100575.67;2134937;83;28762;-58
2021/08/09 20:51:56;;;;;;;10.03;4.35;;;;;;;17.90;60.06;100583.42;2090660;85;31951;-58
2021/08/09 20:54:58;;;;;;;8.50;4.12;;;;;;;17.88;60.08;100581.31;2125165;83;34301;-58
2021/08/09 20:58:02;;;;;;;11.05;4.78;;;;;;;17.86;60.32;100583.78;2035607;86;29414;-59
2021/08/09 21:01:05;;;;;;;8.08;4.05;;;;;;;17.84;60.30;100580.31;2042018;87;27735;-57
2021/08/09 21:04:09;;;;;;;6.80;4.47;;;;;;;17.82;60.55;100583.63;2116255;83;29473;-58
2021/08/09 21:07:11;;;;;;;10.70;5.30;;;;;;;17.79;60.89;100587.41;2135189;83;31648;-58
2021/08/09 21:10:14;;;;;;;8.75;4.33;;;;;;;17.76;60.87;100574.97;2134581;83;33998;-59
2021/08/09 21:13:17;;;;;;;9.00;4.37;;;;;;;17.66;61.21;100564.47;2134615;83;30680;-58
2021/08/09 21:16:20;;;;;;;8.43;4.65;;;;;;;17.72;61.68;100577.53;2126747;83;28225;-58
2021/08/09 21:19:23;;;;;;;9.33;3.77;;;;;;;17.72;61.67;100576.69;2126680;83;28660;-60
2021/08/09 21:22:26;;;;;;;10.60;4.33;;;;;;;17.51;61.73;100543.95;2127707;83;30429;-59
2021/08/09 21:25:27;;;;;;;11.25;4.20;;;;;;;17.68;61.95;100569.76;2134806;83;34093;-60
2021/08/09 21:28:30;;;;;;;11.03;4.60;;;;;;;17.68;61.95;100569.76;2116337;83;29397;-59
2021/08/09 21:31:32;;;;;;;6.37;4.17;;;;;;;17.66;61.93;100576.66;2114764;84;27770;-59
2021/08/09 21:34:35;;;;;;;7.67;4.03;;;;;;;17.65;62.01;100577.64;2089326;84;29091;-60
2021/08/09 21:37:37;;;;;;;9.10;5.53;;;;;;;17.59;62.28;100578.97;2054325;85;31842;-59
2021/08/09 21:40:40;;;;;;;9.40;5.45;;;;;;;17.59;62.28;100578.97;2053941;86;34241;-59
2021/08/09 21:43:44;;;;;;;9.73;4.85;;;;;;;17.60;62.31;100583.88;2072453;85;29372;-58
2021/08/09 21:46:47;;;;;;;13.38;5.22;;;;;;;17.62;62.57;100584.64;2085917;85;27721;-58
2021/08/09 21:49:50;;;;;;;6.58;4.03;;;;;;;17.64;62.59;100581.80;2085824;85;28677;-59
2021/08/09 21:52:53;;;;;;;11.25;4.83;;;;;;;17.64;62.46;100584.51;2091463;84;32111;-59
2021/08/09 21:56:00;;;;;;;13.60;4.62;;;;;;;17.67;62.77;100597.36;2105197;84;34005;-58
2021/08/09 21:59:05;;;;;;;7.72;4.60;;;;;;;17.69;62.98;100598.59;2105121;84;27683;-59
2021/08/09 22:02:08;;;;;;;7.90;4.53;;;;;;;17.69;62.95;100591.81;2105524;84;27715;-60
2021/08/09 22:05:12;;;;;;;14.18;5.28;;;;;;;17.71;63.25;100600.19;2097788;84;28664;-59
2021/08/09 22:08:19;;;;;;;8.90;4.58;;;;;;;17.70;62.94;100603.03;2097694;84;31072;-59
2021/08/09 22:11:24;;;;;;;9.13;5.15;;;;;;;17.54;63.19;100575.73;2097827;84;32969;-59
2021/08/09 22:15:37;;;;;;;9.90;5.03;;;;;;;17.54;63.19;100575.73;2103340;84;30321;-66
2021/08/09 22:18:41;;;;;;;9.18;5.47;;;;;;;17.64;63.23;100598.05;2018766;87;27707;-59
2021/08/09 22:21:44;;;;;;;15.15;5.90;;;;;;;17.56;63.39;100599.98;2009040;88;29497;-60
2021/08/09 22:24:47;;;;;;;8.75;6.05;;;;;;;17.43;63.69;100583.80;2027484;87;31452;-59
2021/08/09 22:27:49;;;;;;;11.28;6.25;;;;;;;17.44;63.51;100604.49;2115018;83;33083;-58
2021/08/09 22:30:54;;;;;;;13.25;7.10;;;;;;;17.36;63.78;100600.11;2134289;83;29401;-58
2021/08/09 22:33:56;;;;;;;15.80;7.20;;;;;;;17.28;63.61;100606.98;2137900;83;27672;-59
2021/08/09 22:36:59;;;;;;;15.65;7.03;;;;;;;17.21;63.85;100607.03;2133524;83;29346;-58
2021/08/09 22:40:04;;;;;;;14.95;8.15;;;;;;;17.09;64.09;100593.89;2057791;86;31092;-59
2021/08/09 22:43:12;;;;;;;15.15;6.28;;;;;;;17.01;64.03;100590.39;2033609;86;34138;-58
2021/08/09 22:46:17;;;;;;;10.70;6.28;;;;;;;17.02;64.46;100592.63;2070877;85;29345;-59
2021/08/09 22:49:18;;;;;;;16.12;7.40;;;;;;;16.97;64.60;100590.73;2071097;86;27748;-59
2021/08/09 22:52:21;;;;;;;11.85;7.70;;;;;;;16.89;64.74;100591.72;2070591;85;28694;-59
2021/08/09 22:55:23;;;;;;;11.43;7.47;;;;;;;16.89;64.74;100591.72;2084790;85;31083;-60
2021/08/09 22:58:26;;;;;;;12.00;6.10;;;;;;;16.80;65.13;100594.13;2085146;85;33354;-59
2021/08/09 23:01:28;;;;;;;13.38;6.92;;;;;;;16.80;65.13;100594.13;2085386;84;29696;-58
2021/08/09 23:04:33;;;;;;;11.20;6.20;;;;;;;16.76;65.07;100595.81;2134357;83;27701;-58
2021/08/09 23:07:35;;;;;;;16.75;6.95;;;;;;;16.69;65.01;100600.30;2134738;83;28640;-58
2021/08/09 23:10:37;;;;;;;13.80;8.13;;;;;;;16.65;65.61;100605.53;2134141;83;31042;-58
2021/08/09 23:13:41;;;;;;;17.25;6.87;;;;;;;16.61;65.83;100609.92;2136790;83;34090;-58
2021/08/09 23:16:43;;;;;;;15.50;6.72;;;;;;;16.61;66.30;100613.98;2094692;85;29926;-59
2021/08/09 23:19:45;;;;;;;13.70;6.53;;;;;;;16.60;66.19;100606.83;2094246;85;27699;-59
2021/08/09 23:22:47;;;;;;;14.25;6.42;;;;;;;16.61;65.95;100608.09;2091905;85;29696;-59
2021/08/09 23:25:49;;;;;;;17.00;7.20;;;;;;;16.62;65.79;100613.89;2085227;85;31836;-59
2021/08/09 23:28:51;;;;;;;13.43;6.85;;;;;;;16.61;65.79;100621.62;2088495;83;33316;-60
2021/08/09 23:31:54;;;;;;;15.08;6.90;;;;;;;16.60;65.78;100616.30;2091000;84;31512;-58
2021/08/09 23:34:57;;;;;;;12.70;6.53;;;;;;;16.60;66.00;100618.53;2032448;86;27689;-58
2021/08/09 23:38:00;;;;;;;12.45;6.25;;;;;;;16.60;66.18;100621.71;2017918;88;29322;-59
2021/08/09 23:41:02;;;;;;;11.30;6.42;;;;;;;16.62;66.26;100617.06;2012916;88;32254;-59
2021/08/09 23:44:04;;;;;;;13.65;6.35;;;;;;;16.63;66.34;100622.35;2032261;86;35126;-59
2021/08/09 23:47:06;;;;;;;17.48;6.58;;;;;;;16.68;66.86;100623.41;2051474;86;30443;-59
2021/08/09 23:50:09;;;;;;;12.70;6.50;;;;;;;16.68;66.86;100623.41;2051397;86;27739;-59
2021/08/09 23:53:11;;;;;;;10.15;6.17;;;;;;;16.72;66.71;100626.25;2042663;86;28716;-58
2021/08/09 23:56:12;;;;;;;9.45;5.75;;;;;;;16.74;66.77;100621.60;2011243;88;32283;-58
2021/08/09 23:59:14;;;;;;;8.48;5.37;;;;;;;16.77;66.88;100618.69;2049119;86;34142;-58
